Time;durP1;ratioP1;P1;durP2;ratioP2;P2;SDS_P1;SDS_P2;PMS_P1;PMS_P2;Temp;Humidity;BMP_temperature;BMP_pressure;BME280_temperature;BME280_humidity;BME280_pressure;Samples;Min_cycle;Max_cycle;Signal;HPM_P1;HPM_P2
2022/11/28 00:02:18;;;;;;;2.80;1.23;;;;;;;-145.69;68.75;52618.66;5091329;28;20198;-83
2022/11/28 00:04:45;;;;;;;2.70;1.30;;;;;;;-145.69;77.36;52622.63;5084314;28;20198;-83
2022/11/28 00:07:12;;;;;;;1.33;1.00;;;;;;;-145.69;76.12;52614.72;5095052;28;20660;-82
2022/11/28 00:09:38;;;;;;;1.80;1.00;;;;;;;-145.69;77.75;52614.72;5095507;28;20206;-83
2022/11/28 00:12:05;;;;;;;2.03;0.90;;;;;;;-145.69;78.76;52600.84;5095217;28;20304;-83
2022/11/28 00:14:32;;;;;;;1.60;1.03;;;;;;;-145.69;80.20;52594.91;5095278;28;20220;-83
2022/11/28 00:16:59;;;;;;;2.47;1.20;;;;;;;-145.69;85.59;52618.66;5094785;28;20190;-83
2022/11/28 00:19:26;;;;;;;1.70;0.93;;;;;;;-145.69;74.95;52642.44;5095101;28;20331;-83
2022/11/28 00:21:53;;;;;;;1.37;0.90;;;;;;;-145.69;69.16;52594.91;5095270;28;20234;-83
2022/11/28 00:24:19;;;;;;;1.60;0.80;;;;;;;-145.69;74.91;52600.84;5095205;28;20204;-83
2022/11/28 00:26:46;;;;;;;0.90;0.80;;;;;;;-145.69;82.69;52588.97;5095219;28;20204;-84
2022/11/28 00:29:13;;;;;;;1.23;0.90;;;;;;;-145.69;78.90;52600.84;5094735;28;20201;-83
2022/11/28 00:31:42;;;;;;;2.30;0.83;;;;;;;-145.69;89.56;52642.44;5094860;28;20226;-83
2022/11/28 00:34:12;;;;;;;3.27;0.90;;;;;;;-145.69;89.69;52614.72;5094810;28;20229;-83
2022/11/28 00:36:38;;;;;;;2.40;1.10;;;;;;;-145.69;92.29;52579.06;5094914;28;20726;-83
2022/11/28 00:39:05;;;;;;;2.53;1.10;;;;;;;-145.69;93.33;52571.13;5094549;28;20665;-84
2022/11/28 00:41:34;;;;;;;1.57;1.00;;;;;;;-145.69;76.95;52596.88;5094528;28;20208;-83
2022/11/28 00:44:01;;;;;;;1.33;0.80;;;;;;;-145.69;75.28;52606.78;5094652;28;20286;-82
2022/11/28 00:46:28;;;;;;;3.23;1.20;;;;;;;-145.69;79.56;52590.94;5094808;28;20198;-84
2022/11/28 00:48:56;;;;;;;1.37;0.90;;;;;;;-145.69;80.57;52594.91;5093832;28;20280;-84
2022/11/28 00:51:26;;;;;;;1.47;0.70;;;;;;;-145.69;84.24;52563.22;5074805;28;20276;-83
2022/11/28 00:53:54;;;;;;;4.50;0.80;;;;;;;-145.69;88.42;52602.81;5089508;28;20194;-83
2022/11/28 00:56:24;;;;;;;0.70;0.60;;;;;;;-145.69;86.56;52598.84;5094222;28;20231;-84
2022/11/28 00:58:51;;;;;;;1.73;0.83;;;;;;;-145.69;91.11;52620.66;5092011;28;20244;-84
2022/11/28 01:01:20;;;;;;;1.50;0.93;;;;;;;-145.69;90.56;52602.81;5079317;28;20207;-84
2022/11/28 01:03:48;;;;;;;1.20;0.90;;;;;;;-145.69;92.08;52598.84;5074254;28;20202;-83
2022/11/28 01:06:21;;;;;;;1.23;0.90;;;;;;;-145.69;92.46;52596.88;5091181;28;20209;-83
2022/11/28 01:08:49;;;;;;;1.53;0.83;;;;;;;-145.69;95.20;52614.72;5093738;28;20277;-83
2022/11/28 01:11:16;;;;;;;0.97;0.83;;;;;;;-145.69;93.43;52583.00;5093593;28;20554;-83
2022/11/28 01:13:43;;;;;;;1.73;1.27;;;;;;;-145.69;95.35;52602.81;5094567;28;20202;-84
2022/11/28 01:16:10;;;;;;;2.60;1.03;;;;;;;-145.69;96.01;52612.72;5093880;28;20281;-84
2022/11/28 01:18:37;;;;;;;1.20;0.93;;;;;;;-145.69;95.37;52608.75;5093950;28;20276;-84
2022/11/28 01:21:05;;;;;;;1.53;0.90;;;;;;;-145.69;96.53;52626.59;5093722;28;20205;-83
2022/11/28 01:23:31;;;;;;;2.37;1.30;;;;;;;-145.69;94.11;52581.03;5093903;28;20213;-83
2022/11/28 01:26:00;;;;;;;2.43;1.40;;;;;;;-145.69;96.60;52602.81;5093889;28;20661;-84
2022/11/28 01:28:27;;;;;;;1.77;1.07;;;;;;;-145.69;96.19;52626.59;5094279;28;20198;-83
2022/11/28 01:30:53;;;;;;;2.60;1.20;;;;;;;-145.69;95.19;52594.91;5093116;28;20194;-83
2022/11/28 01:33:20;;;;;;;1.50;1.17;;;;;;;-145.69;89.62;52606.78;5093672;28;20244;-83
2022/11/28 01:35:55;;;;;;;1.53;0.93;;;;;;;-145.69;90.18;52598.84;5093797;28;20200;-83
2022/11/28 01:38:22;;;;;;;1.47;0.90;;;;;;;-145.69;87.08;52586.97;5093792;28;20270;-84
2022/11/28 01:40:49;;;;;;;2.63;1.20;;;;;;;-145.69;88.21;52586.97;5093960;28;20653;-83
2022/11/28 01:43:17;;;;;;;1.67;1.00;;;;;;;-145.69;92.27;52614.72;5093741;28;20272;-83
2022/11/28 01:45:47;;;;;;;1.83;1.03;;;;;;;-145.69;93.89;52598.84;5093741;28;20201;-83
2022/11/28 01:48:17;;;;;;;1.50;1.20;;;;;;;-145.69;95.66;52586.97;5093409;28;20280;-83
2022/11/28 01:50:48;;;;;;;1.53;1.10;;;;;;;-145.69;95.75;52606.78;5093366;28;20202;-82
2022/11/28 01:53:16;;;;;;;1.83;1.23;;;;;;;-145.69;92.74;52614.72;5093608;28;20198;-83
2022/11/28 01:55:49;;;;;;;2.23;1.07;;;;;;;-145.69;93.89;52602.81;5090635;28;20252;-84
2022/11/28 01:58:17;;;;;;;3.17;1.23;;;;;;;-145.69;96.05;52598.84;5072836;28;20199;-82
2022/11/28 02:00:43;;;;;;;3.40;1.30;;;;;;;-145.69;95.46;52620.66;5073303;28;20202;-83
2022/11/28 02:03:14;;;;;;;3.20;1.08;;;;;;;-145.69;92.03;52579.06;5072872;28;20951;-84
2022/11/28 02:05:40;;;;;;;3.70;1.27;;;;;;;-145.69;96.02;52598.84;5073501;28;20199;-84
2022/11/28 02:08:09;;;;;;;3.60;1.40;;;;;;;-145.69;93.69;52604.81;5089209;28;20569;-83
2022/11/28 02:10:48;;;;;;;4.37;1.60;;;;;;;-145.69;94.68;52618.66;5093365;28;20198;-83
2022/11/28 02:13:32;;;;;;;1.97;1.20;;;;;;;-145.69;98.00;52606.78;5093268;28;20660;-83
2022/11/28 02:16:15;;;;;;;2.10;1.20;;;;;;;-145.69;98.42;52628.56;5093560;28;20288;-83
2022/11/28 02:19:04;;;;;;;2.30;1.20;;;;;;;-145.69;100.00;52616.69;5093187;28;20206;-83
2022/11/28 02:21:42;;;;;;;5.67;1.43;;;;;;;-145.69;96.72;52596.88;5093709;28;20206;-83
2022/11/28 02:24:35;;;;;;;2.90;1.50;;;;;;;-145.69;100.00;52588.97;5093032;28;20194;-83
2022/11/28 02:27:37;;;;;;;2.80;1.07;;;;;;;-145.69;100.00;52575.09;5093586;28;20273;-84
2022/11/28 02:30:19;;;;;;;1.83;1.30;;;;;;;-145.69;99.89;52602.81;5093090;28;20680;-83
2022/11/28 02:33:05;;;;;;;1.97;1.30;;;;;;;-145.69;100.00;52588.97;5092718;28;20232;-83
2022/11/28 02:35:38;;;;;;;3.43;1.30;;;;;;;-145.69;100.00;52608.75;5093295;28;20294;-83
2022/11/28 02:38:14;;;;;;;2.37;1.13;;;;;;;-145.69;100.00;52618.66;5092473;28;20614;-83
2022/11/28 02:40:49;;;;;;;1.90;1.00;;;;;;;-145.69;100.00;52608.75;5093164;28;20205;-82
2022/11/28 02:43:23;;;;;;;3.23;1.47;;;;;;;-145.69;100.00;52612.72;5092717;28;20194;-83
2022/11/28 02:45:55;;;;;;;1.43;1.20;;;;;;;-145.69;100.00;52614.72;5093183;28;20292;-84
2022/11/28 02:48:32;;;;;;;1.47;1.20;;;;;;;-145.69;100.00;52630.53;5093225;28;20653;-83
2022/11/28 02:51:04;;;;;;;3.13;1.30;;;;;;;-145.69;100.00;52590.94;5092282;28;20433;-84
2022/11/28 02:53:33;;;;;;;1.60;1.20;;;;;;;-145.69;100.00;52616.69;5093234;28;20436;-82
2022/11/28 02:56:01;;;;;;;3.23;1.27;;;;;;;-145.69;100.00;52606.78;5093098;28;20191;-84
2022/11/28 02:58:27;;;;;;;1.73;1.33;;;;;;;-145.69;100.00;52606.78;5093178;28;20209;-84
2022/11/28 03:00:55;;;;;;;1.57;1.03;;;;;;;-145.69;100.00;52618.66;5093026;28;20230;-83
2022/11/28 03:03:52;;;;;;;2.30;1.53;;;;;;;-145.69;100.00;52642.44;5092992;28;20293;-83
2022/11/28 03:06:32;;;;;;;1.93;1.27;;;;;;;-145.69;100.00;52624.59;5093143;28;20194;-82
2022/11/28 03:09:25;;;;;;;5.20;1.50;;;;;;;-145.69;100.00;52604.81;5093548;28;20197;-83
2022/11/28 03:12:03;;;;;;;2.53;1.77;;;;;;;-145.69;100.00;52602.81;5093168;28;20225;-84
2022/11/28 03:14:41;;;;;;;6.77;1.50;;;;;;;-145.69;100.00;52594.91;5096787;28;20537;-83
2022/11/28 03:17:18;;;;;;;6.03;1.70;;;;;;;-145.69;100.00;52600.84;5096821;28;20194;-83
2022/11/28 03:19:55;;;;;;;2.97;1.43;;;;;;;-145.69;100.00;52606.78;5096891;28;20229;-82
2022/11/28 03:22:28;;;;;;;2.43;1.50;;;;;;;-145.69;100.00;52583.00;5096920;28;20208;-82
2022/11/28 03:25:00;;;;;;;3.23;1.50;;;;;;;-145.69;100.00;52620.66;5097040;28;20240;-83
2022/11/28 03:27:32;;;;;;;3.80;1.63;;;;;;;-145.69;100.00;52602.81;5096525;28;20659;-82
2022/11/28 03:30:06;;;;;;;1.87;1.37;;;;;;;-145.69;100.00;52658.28;5096364;28;20267;-83
2022/11/28 03:32:36;;;;;;;5.13;1.40;;;;;;;-145.69;100.00;52610.75;5096204;28;20230;-83
2022/11/28 03:35:08;;;;;;;2.30;1.43;;;;;;;-145.69;100.00;52650.34;5096142;28;20229;-83
2022/11/28 03:37:41;;;;;;;3.73;1.50;;;;;;;-145.69;100.00;52612.72;5096104;28;20194;-83
2022/11/28 03:40:14;;;;;;;1.83;1.40;;;;;;;-145.69;100.00;52624.59;5095984;28;20279;-82
2022/11/28 03:42:43;;;;;;;2.30;1.20;;;;;;;-145.69;100.00;52588.97;5096109;28;20194;-83
2022/11/28 03:45:17;;;;;;;2.97;1.37;;;;;;;-145.69;100.00;52618.66;5095800;28;20198;-83
2022/11/28 03:47:46;;;;;;;4.57;1.40;;;;;;;-145.69;100.00;52600.84;5095971;28;20258;-83
2022/11/28 03:50:18;;;;;;;1.43;1.10;;;;;;;-145.69;94.46;52622.63;5095883;28;20210;-83
2022/11/28 03:52:50;;;;;;;2.83;1.37;;;;;;;-145.69;96.56;52594.91;5078345;28;20231;-82
2022/11/28 03:55:21;;;;;;;3.30;1.30;;;;;;;-145.69;100.00;52630.53;5075650;28;20206;-83
2022/11/28 03:57:57;;;;;;;2.67;1.60;;;;;;;-145.69;100.00;52610.75;5075709;28;20199;-82
2022/11/28 04:00:24;;;;;;;3.53;1.50;;;;;;;-145.69;100.00;52610.75;5075669;28;20198;-83
2022/11/28 04:02:59;;;;;;;4.23;1.30;;;;;;;-145.69;100.00;52618.66;5095707;28;20195;-83
2022/11/28 04:05:33;;;;;;;2.57;1.30;;;;;;;-145.69;100.00;52618.66;5095492;28;20201;-82
2022/11/28 04:08:06;;;;;;;2.00;1.40;;;;;;;-145.69;100.00;52598.84;5095897;28;20252;-82
2022/11/28 04:10:39;;;;;;;3.53;1.33;;;;;;;-145.69;100.00;52634.50;5075694;28;20228;-83
2022/11/28 04:13:11;;;;;;;5.53;1.40;;;;;;;-145.69;100.00;52573.13;5082643;28;20222;-83
2022/11/28 04:15:41;;;;;;;3.83;1.37;;;;;;;-145.69;100.00;52592.91;5095596;28;20194;-82
2022/11/28 04:18:21;;;;;;;4.43;1.80;;;;;;;-145.69;100.00;52622.63;5095831;28;20657;-82
2022/11/28 04:20:55;;;;;;;4.63;1.77;;;;;;;-145.69;100.00;52612.72;5094017;28;20428;-82
2022/11/28 04:23:22;;;;;;;6.40;1.80;;;;;;;-145.69;100.00;52622.63;5095229;28;20671;-82
2022/11/28 04:25:53;;;;;;;12.50;1.80;;;;;;;-145.69;100.00;52634.50;5095355;28;20194;-82
2022/11/28 04:28:24;;;;;;;3.27;1.60;;;;;;;-145.69;100.00;52614.72;5095261;28;20569;-82
2022/11/28 04:30:53;;;;;;;3.77;1.63;;;;;;;-145.69;100.00;52624.59;5095188;28;20206;-83
2022/11/28 04:33:23;;;;;;;3.17;2.00;;;;;;;-145.69;100.00;52610.75;5094639;28;20265;-82
2022/11/28 04:35:53;;;;;;;4.33;1.90;;;;;;;-145.69;100.00;52614.72;5095418;28;20209;-83
2022/11/28 04:38:23;;;;;;;2.37;1.47;;;;;;;-145.69;100.00;52638.47;5094567;28;20699;-82
2022/11/28 04:40:53;;;;;;;3.40;1.63;;;;;;;-145.69;100.00;52628.56;5095290;28;20202;-82
2022/11/28 04:43:25;;;;;;;2.30;1.50;;;;;;;-145.69;100.00;52610.75;5095269;28;20228;-82
2022/11/28 04:45:56;;;;;;;7.13;2.13;;;;;;;-145.69;100.00;52588.97;5095237;28;20205;-82
2022/11/28 04:48:23;;;;;;;5.27;1.97;;;;;;;-145.69;100.00;52622.63;5094734;28;20237;-82
2022/11/28 04:50:58;;;;;;;5.47;2.03;;;;;;;-145.69;100.00;52618.66;5094761;28;20202;-82
2022/11/28 04:53:31;;;;;;;3.10;1.87;;;;;;;-145.69;100.00;52602.81;5094807;28;20718;-82
2022/11/28 04:56:01;;;;;;;3.60;1.73;;;;;;;-145.69;100.00;52590.94;5094935;28;20744;-82
2022/11/28 04:58:33;;;;;;;6.50;1.80;;;;;;;-145.69;100.00;52610.75;5094905;28;20295;-83
2022/11/28 05:01:02;;;;;;;2.03;1.50;;;;;;;-145.69;100.00;52610.75;5094104;28;20673;-82
2022/11/28 05:03:30;;;;;;;3.40;1.90;;;;;;;-145.69;100.00;52606.78;5074396;28;20248;-82
2022/11/28 05:05:58;;;;;;;2.73;1.53;;;;;;;-145.69;100.00;52622.63;5074485;28;20218;-83
2022/11/28 05:08:25;;;;;;;2.50;1.60;;;;;;;-145.69;100.00;52616.69;5076808;28;20234;-83
2022/11/28 05:10:51;;;;;;;4.30;1.70;;;;;;;-145.69;100.00;52630.53;5094463;28;20193;-83
2022/11/28 05:13:18;;;;;;;3.80;1.73;;;;;;;-145.69;100.00;52650.34;5094422;28;20232;-84
2022/11/28 05:15:44;;;;;;;9.57;1.57;;;;;;;-145.69;100.00;52606.78;5094247;28;20660;-83
2022/11/28 05:18:11;;;;;;;3.10;1.80;;;;;;;-145.69;100.00;52634.50;5094336;28;20198;-83
2022/11/28 05:20:38;;;;;;;3.83;1.97;;;;;;;-145.69;100.00;52622.63;5094391;28;20208;-83
2022/11/28 05:23:06;;;;;;;2.00;1.37;;;;;;;-145.69;100.00;52642.44;5094056;28;20198;-83
2022/11/28 05:25:33;;;;;;;3.20;1.70;;;;;;;-145.69;100.00;52632.53;5093658;28;20201;-83
2022/11/28 05:27:59;;;;;;;4.07;1.80;;;;;;;-145.69;100.00;52616.69;5094023;28;20213;-84
2022/11/28 05:30:26;;;;;;;5.80;1.87;;;;;;;-145.69;100.00;52634.50;5094093;28;20206;-84
2022/11/28 05:32:52;;;;;;;4.50;2.00;;;;;;;-145.69;100.00;52636.50;5093771;28;20233;-83
2022/11/28 05:35:19;;;;;;;3.93;1.90;;;;;;;-145.69;100.00;52648.38;5093198;28;20262;-83
2022/11/28 05:37:45;;;;;;;8.63;1.73;;;;;;;-145.69;100.00;52658.28;5093341;28;20285;-82
2022/11/28 05:40:14;;;;;;;6.87;1.83;;;;;;;-145.69;100.00;52640.44;5093277;28;20197;-83
2022/11/28 05:42:40;;;;;;;3.10;1.77;;;;;;;-145.69;100.00;52642.44;5094204;28;20202;-82
2022/11/28 05:45:08;;;;;;;3.53;1.70;;;;;;;-145.69;100.00;52608.75;5093600;28;20524;-82
2022/11/28 05:47:34;;;;;;;6.27;1.70;;;;;;;-145.69;100.00;52602.81;5094633;28;20204;-81
2022/11/28 05:50:01;;;;;;;3.50;1.70;;;;;;;-145.69;100.00;52614.72;5088107;28;20197;-82
2022/11/28 05:52:31;;;;;;;8.57;1.70;;;;;;;-145.69;100.00;52614.72;5093494;28;20221;-82
2022/11/28 05:54:58;;;;;;;6.90;1.70;;;;;;;-145.69;100.00;52598.84;5093587;28;20198;-82
2022/11/28 05:57:28;;;;;;;5.27;2.20;;;;;;;-145.69;100.00;52614.72;5093604;28;20198;-82
2022/11/28 05:59:56;;;;;;;8.23;1.80;;;;;;;-145.69;100.00;52598.84;5093546;28;20210;-83
2022/11/28 06:02:22;;;;;;;6.90;2.20;;;;;;;-145.69;100.00;52638.47;5093208;28;20196;-82
2022/11/28 06:04:49;;;;;;;4.47;1.73;;;;;;;-145.69;100.00;52620.66;5093407;28;20209;-82
2022/11/28 06:07:17;;;;;;;3.00;1.83;;;;;;;-145.69;100.00;52630.53;5093473;28;20244;-82
2022/11/28 06:09:44;;;;;;;3.90;1.60;;;;;;;-145.69;100.00;52614.72;5093113;28;20210;-82
2022/11/28 06:12:10;;;;;;;6.80;1.83;;;;;;;-145.69;100.00;52622.63;5093296;28;20206;-83
2022/11/28 06:14:38;;;;;;;3.73;1.67;;;;;;;-145.69;100.00;52642.44;5093115;28;20579;-82
2022/11/28 06:17:04;;;;;;;4.70;2.10;;;;;;;-145.69;100.00;52642.44;5093011;28;20659;-83
2022/11/28 06:19:31;;;;;;;3.53;1.57;;;;;;;-145.69;100.00;52594.91;5093261;28;20193;-82
2022/11/28 06:21:58;;;;;;;10.87;2.30;;;;;;;-145.69;100.00;52626.59;5093385;28;20205;-83
2022/11/28 06:24:24;;;;;;;6.30;1.87;;;;;;;-145.69;100.00;52606.78;5093188;28;20293;-83
2022/11/28 06:26:51;;;;;;;7.53;1.50;;;;;;;-145.69;100.00;52610.75;5092775;28;20217;-82
2022/11/28 06:29:17;;;;;;;11.17;1.90;;;;;;;-145.69;100.00;52610.75;5093403;28;20288;-82
2022/11/28 06:31:45;;;;;;;11.50;2.17;;;;;;;-145.69;100.00;52590.94;5093368;28;20202;-82
2022/11/28 06:34:12;;;;;;;9.30;1.73;;;;;;;-145.69;100.00;52594.91;5093162;28;20593;-82
2022/11/28 06:36:39;;;;;;;5.20;1.67;;;;;;;-145.69;100.00;52622.63;5093082;28;20206;-82
2022/11/28 06:39:06;;;;;;;15.43;2.00;;;;;;;-145.69;100.00;52634.50;5093750;28;20205;-82
2022/11/28 06:41:32;;;;;;;7.43;1.77;;;;;;;-145.69;100.00;52602.81;5093791;28;20187;-82
2022/11/28 06:43:59;;;;;;;4.67;1.87;;;;;;;-145.69;100.00;52606.78;5093177;28;20204;-82
2022/11/28 06:46:25;;;;;;;8.37;2.00;;;;;;;-145.69;100.00;52612.72;5094608;28;20201;-83
2022/11/28 06:48:53;;;;;;;10.27;2.10;;;;;;;-145.69;100.00;52614.72;5097161;28;20198;-83
2022/11/28 06:51:21;;;;;;;3.17;1.60;;;;;;;-145.69;100.00;52632.53;5098260;28;20663;-82
2022/11/28 06:53:47;;;;;;;2.80;1.60;;;;;;;-145.69;100.00;52624.59;5098227;28;20863;-82
2022/11/28 06:56:16;;;;;;;11.47;1.70;;;;;;;-145.69;100.00;52614.72;5099127;28;20202;-82
2022/11/28 06:58:44;;;;;;;8.30;1.57;;;;;;;-145.69;100.00;52590.94;5098925;28;20198;-82
2022/11/28 07:01:13;;;;;;;9.47;1.73;;;;;;;-145.69;100.00;52624.59;5098078;28;20198;-82
2022/11/28 07:03:40;;;;;;;5.30;1.57;;;;;;;-145.69;100.00;52634.50;5097080;28;20194;-82
2022/11/28 07:06:08;;;;;;;5.03;2.10;;;;;;;-145.69;100.00;52624.59;5096974;28;20194;-82
2022/11/28 07:08:36;;;;;;;3.90;1.90;;;;;;;-145.69;100.00;52626.59;5096716;28;20657;-82
2022/11/28 07:11:11;;;;;;;5.40;1.97;;;;;;;-145.69;100.00;52612.72;5096380;28;20627;-83
2022/11/28 07:13:37;;;;;;;2.70;1.30;;;;;;;-145.69;100.00;52628.56;5096408;28;20221;-83
2022/11/28 07:16:04;;;;;;;2.63;1.40;;;;;;;-145.69;100.00;52638.47;5096681;28;20187;-83
2022/11/28 07:18:31;;;;;;;4.93;1.90;;;;;;;-145.69;100.00;52612.72;5096619;28;20443;-83
2022/11/28 07:20:57;;;;;;;5.13;1.73;;;;;;;-145.69;100.00;52604.81;5096807;28;20198;-83
2022/11/28 07:23:26;;;;;;;3.83;1.70;;;;;;;-145.69;100.00;52620.66;5096396;28;20198;-83
2022/11/28 07:25:58;;;;;;;4.33;2.13;;;;;;;-145.69;100.00;52624.59;5096289;28;20281;-82
2022/11/28 07:28:25;;;;;;;6.73;2.33;;;;;;;-145.69;100.00;52626.59;5096115;28;20209;-83
2022/11/28 07:30:59;;;;;;;2.37;1.70;;;;;;;-145.69;100.00;52592.91;5096719;28;20194;-83
2022/11/28 07:33:26;;;;;;;3.67;1.57;;;;;;;-145.69;100.00;52616.69;5095947;28;20329;-83
2022/11/28 07:35:52;;;;;;;1.70;1.17;;;;;;;-145.69;100.00;52608.75;5096337;28;20204;-83
2022/11/28 07:38:19;;;;;;;4.80;1.57;;;;;;;-145.69;100.00;52616.69;5096191;28;20206;-83
2022/11/28 07:40:47;;;;;;;6.17;1.90;;;;;;;-145.69;100.00;52602.81;5095877;28;20225;-84
2022/11/28 07:43:13;;;;;;;2.73;1.60;;;;;;;-145.69;100.00;52610.75;5093403;28;20284;-84
2022/11/28 07:45:40;;;;;;;1.50;1.30;;;;;;;-145.69;100.00;52630.53;5075671;28;20264;-84
2022/11/28 07:48:09;;;;;;;4.00;1.43;;;;;;;-145.69;100.00;52567.16;5088526;28;20204;-83
2022/11/28 07:50:39;;;;;;;5.33;1.50;;;;;;;-145.69;100.00;52620.66;5095991;28;20202;-83
2022/11/28 07:53:07;;;;;;;2.27;1.40;;;;;;;-145.69;100.00;52632.53;5096091;28;20702;-82
2022/11/28 07:55:35;;;;;;;3.40;1.50;;;;;;;-145.69;100.00;52586.97;5095034;28;21003;-83
2022/11/28 07:58:06;;;;;;;2.40;1.30;;;;;;;-145.69;100.00;52598.84;5095911;28;20213;-83
2022/11/28 08:00:37;;;;;;;4.20;1.30;;;;;;;-145.69;100.00;52598.84;5097119;28;20206;-82
2022/11/28 08:03:04;;;;;;;3.60;1.27;;;;;;;-145.69;100.00;52604.81;5096228;28;20202;-82
2022/11/28 08:05:30;;;;;;;2.73;1.40;;;;;;;-145.69;100.00;52581.03;5095947;28;20731;-83
2022/11/28 08:08:00;;;;;;;2.80;1.40;;;;;;;-145.69;100.00;52588.97;5097057;28;20198;-83
2022/11/28 08:10:28;;;;;;;1.93;1.13;;;;;;;-145.69;100.00;52608.75;5096813;28;20277;-82
2022/11/28 08:13:01;;;;;;;4.10;1.63;;;;;;;-145.69;100.00;52585.00;5096364;28;20229;-83
2022/11/28 08:15:31;;;;;;;7.60;1.40;;;;;;;-145.69;100.00;52586.97;5096652;28;20672;-82
2022/11/28 08:17:57;;;;;;;2.80;1.17;;;;;;;-145.69;100.00;52586.97;5096471;28;20194;-83
2022/11/28 08:20:24;;;;;;;3.47;1.33;;;;;;;-145.69;100.00;52594.91;5096608;28;20229;-83
2022/11/28 08:22:51;;;;;;;2.00;1.10;;;;;;;-145.69;100.00;52583.00;5095566;28;20198;-83
2022/11/28 08:25:20;;;;;;;5.83;1.40;;;;;;;-145.69;100.00;52600.84;5095582;28;20723;-80
2022/11/28 08:27:47;;;;;;;2.97;1.30;;;;;;;-145.69;100.00;52590.94;5096688;28;20194;-80
2022/11/28 08:30:14;;;;;;;3.03;1.40;;;;;;;-145.69;100.00;52616.69;5095406;28;20225;-81
2022/11/28 08:32:42;;;;;;;1.87;1.20;;;;;;;-145.69;100.00;52642.44;5095428;28;20248;-81
2022/11/28 08:35:12;;;;;;;4.83;1.70;;;;;;;-145.69;100.00;52598.84;5095404;28;20249;-81
2022/11/28 08:37:52;;;;;;;4.73;1.73;;;;;;;-145.69;100.00;52602.81;5096582;28;20316;-81
2022/11/28 08:40:19;;;;;;;10.20;2.60;;;;;;;-145.69;100.00;52590.94;5095344;28;20277;-83
2022/11/28 08:42:46;;;;;;;4.30;1.17;;;;;;;-145.69;100.00;52630.53;5094953;28;20294;-81
2022/11/28 08:45:15;;;;;;;1.60;1.20;;;;;;;-145.69;100.00;52602.81;5095390;28;20275;-82
2022/11/28 08:47:43;;;;;;;6.77;1.60;;;;;;;-145.69;100.00;52586.97;5094205;28;20244;-81
2022/11/28 08:50:10;;;;;;;5.23;1.90;;;;;;;-145.69;100.00;52583.00;5095029;28;20553;-82
2022/11/28 08:52:41;;;;;;;2.53;1.30;;;;;;;-145.69;100.00;52592.91;5094979;28;20237;-82
2022/11/28 08:55:10;;;;;;;2.73;1.33;;;;;;;-145.69;100.00;52586.97;5094499;28;20230;-81
2022/11/28 08:57:37;;;;;;;4.73;1.53;;;;;;;-145.69;100.00;52573.13;5094837;28;20204;-81
2022/11/28 09:00:07;;;;;;;1.30;1.10;;;;;;;-145.69;100.00;52563.22;5094287;28;20588;-81
2022/11/28 09:02:34;;;;;;;2.47;1.30;;;;;;;-145.69;100.00;52561.22;5094778;28;20255;-81
2022/11/28 09:05:02;;;;;;;2.70;1.20;;;;;;;-145.69;100.00;52575.09;5094243;28;20289;-82
2022/11/28 09:07:29;;;;;;;294.77;72.83;;;;;;;-145.69;100.00;52590.94;5094445;28;20289;-81
2022/11/28 09:09:56;;;;;;;18.77;5.30;;;;;;;-145.69;100.00;52559.25;5092391;28;20644;-81
2022/11/28 09:12:23;;;;;;;25.97;8.70;;;;;;;-145.69;100.00;52579.06;5094140;28;20641;-80
2022/11/28 09:14:49;;;;;;;20.07;7.27;;;;;;;-145.69;100.00;52614.72;5093957;28;20245;-81
2022/11/28 09:17:16;;;;;;;6.87;1.50;;;;;;;-145.69;100.00;52555.28;5094436;28;20198;-81
2022/11/28 09:19:42;;;;;;;3.63;1.80;;;;;;;-145.69;100.00;52567.16;5094256;28;20205;-82
2022/11/28 09:22:10;;;;;;;11.40;3.40;;;;;;;-145.69;100.00;52555.28;5094142;28;20297;-81
2022/11/28 09:24:37;;;;;;;3.73;1.80;;;;;;;-145.69;100.00;52612.72;5094094;28;20209;-81
2022/11/28 09:27:03;;;;;;;7.90;3.40;;;;;;;-145.69;100.00;52586.97;5093725;28;20190;-81
2022/11/28 09:29:30;;;;;;;7.67;2.53;;;;;;;-145.69;100.00;52553.31;5094554;28;20202;-81
2022/11/28 09:31:57;;;;;;;6.67;2.90;;;;;;;-145.69;100.00;52549.34;5093926;28;20201;-81
2022/11/28 09:34:23;;;;;;;9.60;2.80;;;;;;;-145.69;100.00;52537.47;5093997;28;20244;-81
2022/11/28 09:36:49;;;;;;;5.03;2.57;;;;;;;-145.69;100.00;52525.59;5078561;28;20199;-82
2022/11/28 09:39:19;;;;;;;6.23;3.17;;;;;;;-145.69;100.00;52563.22;5085231;28;20191;-82
2022/11/28 09:42:04;;;;;;;6.33;3.17;;;;;;;-145.69;100.00;52555.28;5094228;28;20243;-82
2022/11/28 09:44:40;;;;;;;8.03;4.17;;;;;;;-145.69;100.00;52579.06;5095707;28;20198;-82
2022/11/28 09:47:14;;;;;;;7.80;4.13;;;;;;;-145.69;100.00;52547.38;5094829;28;20652;-82
2022/11/28 09:49:46;;;;;;;6.03;3.13;;;;;;;-145.69;100.00;52559.25;5094402;28;20205;-82
2022/11/28 09:52:24;;;;;;;5.87;2.50;;;;;;;-145.69;100.00;52571.13;5094263;28;20251;-82
2022/11/28 09:55:01;;;;;;;2.40;1.60;;;;;;;-145.69;100.00;52559.25;5094114;28;20231;-82
2022/11/28 09:57:34;;;;;;;5.77;1.67;;;;;;;-145.69;100.00;52505.78;5094641;28;20193;-82
2022/11/28 10:00:01;;;;;;;2.80;1.57;;;;;;;-145.69;100.00;52539.44;5094596;28;20200;-82
2022/11/28 10:02:35;;;;;;;4.00;1.63;;;;;;;-145.69;95.40;52573.13;5092166;28;20205;-81
2022/11/28 10:05:15;;;;;;;3.10;1.60;;;;;;;-145.69;96.94;52553.31;5082814;28;20597;-79
2022/11/28 10:07:55;;;;;;;3.72;1.77;;;;;;;-145.69;91.82;52519.63;5072915;28;20202;-79
2022/11/28 10:10:38;;;;;;;4.60;1.60;;;;;;;-145.69;93.46;52515.69;5091675;28;20190;-79
2022/11/28 10:13:13;;;;;;;4.03;1.90;;;;;;;-145.69;92.51;52571.13;5092868;28;20206;-79
2022/11/28 10:15:53;;;;;;;6.07;2.97;;;;;;;-145.69;93.73;52507.75;5093229;28;20197;-79
2022/11/28 10:18:34;;;;;;;7.55;3.20;;;;;;;-145.69;93.40;52545.38;5092894;28;20209;-80
2022/11/28 10:21:03;;;;;;;11.30;4.50;;;;;;;-145.69;94.25;52590.94;5092713;28;20198;-79
2022/11/28 10:23:34;;;;;;;9.70;4.33;;;;;;;-145.69;97.62;52531.53;5092814;28;20235;-79
2022/11/28 10:26:07;;;;;;;34.50;11.00;;;;;;;-145.69;93.83;52525.59;5092839;28;20556;-79
2022/11/28 10:28:37;;;;;;;115.00;34.03;;;;;;;-145.69;92.35;52533.50;5092772;28;20293;-79
2022/11/28 10:31:07;;;;;;;8.23;4.10;;;;;;;-145.69;90.30;52543.41;5092890;28;20200;-79
2022/11/28 10:33:41;;;;;;;14.27;5.25;;;;;;;-145.69;96.04;52559.25;5092412;28;20244;-80
2022/11/28 10:36:15;;;;;;;12.77;5.20;;;;;;;-145.69;95.73;52545.38;5093137;28;20198;-81
2022/11/28 10:38:41;;;;;;;10.23;3.83;;;;;;;-145.69;91.71;52523.59;5092804;28;20190;-81
2022/11/28 10:41:17;;;;;;;7.60;3.30;;;;;;;-145.69;89.31;52523.59;5092586;28;20284;-80
2022/11/28 10:43:58;;;;;;;7.20;2.90;;;;;;;-145.69;88.94;52523.59;5092925;28;20204;-80
2022/11/28 10:46:47;;;;;;;8.00;2.60;;;;;;;-145.69;91.15;52535.47;5092426;28;20202;-80
2022/11/28 10:49:40;;;;;;;6.95;2.42;;;;;;;-145.69;89.88;52543.41;5092654;28;20645;-80
2022/11/28 10:52:15;;;;;;;5.13;1.90;;;;;;;-145.69;93.92;52543.41;5093077;28;20201;-80
2022/11/28 10:55:20;;;;;;;6.00;2.50;;;;;;;-145.69;91.62;52539.44;5092567;28;20221;-81
2022/11/28 10:57:59;;;;;;;13.10;3.03;;;;;;;-145.69;95.26;52535.47;5092860;28;20207;-80
2022/11/28 11:00:28;;;;;;;7.70;2.67;;;;;;;-145.69;89.31;52531.53;5092501;28;20204;-81
2022/11/28 11:02:55;;;;;;;5.60;2.28;;;;;;;-145.69;96.24;52543.41;5092507;28;20201;-81
2022/11/28 11:05:25;;;;;;;7.40;2.20;;;;;;;-145.69;94.29;52519.63;5092651;28;20562;-80
2022/11/28 11:07:55;;;;;;;3.97;1.60;;;;;;;-145.69;93.53;52555.28;5092606;28;20195;-81
2022/11/28 11:10:26;;;;;;;3.88;2.30;;;;;;;-145.69;92.98;52553.31;5091481;28;20194;-80
2022/11/28 11:12:54;;;;;;;8.85;3.70;;;;;;;-145.69;94.90;52535.47;5092023;28;20194;-81
2022/11/28 11:15:29;;;;;;;12.10;4.95;;;;;;;-145.69;93.76;52555.28;5092345;28;20229;-80
2022/11/28 11:18:01;;;;;;;15.50;5.63;;;;;;;-145.69;97.14;52499.84;5092958;28;20200;-80
2022/11/28 11:20:33;;;;;;;12.20;4.60;;;;;;;-145.69;98.90;52549.34;5092411;28;20209;-80
2022/11/28 11:23:02;;;;;;;15.27;4.68;;;;;;;-145.69;99.30;52517.66;5092668;28;20224;-81
2022/11/28 11:25:31;;;;;;;6.78;2.58;;;;;;;-145.69;95.56;52525.59;5092456;28;20202;-80
2022/11/28 11:28:03;;;;;;;6.68;2.20;;;;;;;-145.69;96.08;52519.63;5092678;28;20226;-81